createdAt,value
2022-12-25T10:36:35.664Z,13.50
2022-12-25T10:39:04.344Z,13.30
2022-12-25T10:41:54.584Z,13.60
2022-12-25T10:44:25.561Z,13.70
2022-12-25T10:46:55.712Z,14.00
2022-12-25T10:49:26.594Z,14.10
2022-12-25T10:51:56.617Z,14.10
2022-12-25T10:54:26.882Z,13.90
2022-12-25T10:56:57.178Z,13.70
2022-12-25T10:59:26.576Z,13.70
2022-12-25T11:01:55.832Z,13.50
2022-12-25T11:04:28.787Z,13.40
2022-12-25T11:07:07.219Z,13.60
2022-12-25T11:09:36.094Z,13.70
2022-12-25T11:12:05.122Z,13.80
2022-12-25T11:14:33.704Z,14.00
2022-12-25T11:17:10.086Z,13.90
2022-12-25T11:19:38.757Z,13.80
2022-12-25T11:22:19.818Z,13.80
2022-12-25T11:24:48.473Z,14.10
2022-12-25T11:27:24.593Z,14.20
2022-12-25T11:29:57.420Z,14.50
2022-12-25T11:32:30.817Z,14.80
2022-12-25T13:15:50.768Z,17.10
2022-12-25T13:18:19.878Z,17.10
2022-12-25T13:20:55.057Z,17.00
2022-12-25T13:23:27.978Z,16.50
2022-12-25T13:25:57.918Z,16.00
2022-12-25T13:28:29.764Z,16.00
2022-12-25T13:31:07.605Z,15.40
2022-12-25T13:33:36.488Z,15.20
2022-12-25T13:36:06.395Z,14.90
2022-12-25T13:38:34.970Z,14.80
2022-12-25T13:41:21.121Z,14.80
2022-12-25T13:43:51.428Z,14.70
2022-12-25T13:46:27.581Z,14.60
2022-12-25T13:49:01.330Z,14.70
2022-12-25T13:51:29.935Z,14.80
2022-12-25T13:54:06.000Z,14.90
2022-12-25T13:56:36.453Z,14.70
2022-12-25T13:59:06.618Z,14.50
2022-12-25T14:01:35.280Z,14.20
2022-12-25T14:04:05.637Z,14.10
2022-12-25T14:06:34.221Z,14.00
2022-12-25T14:09:03.028Z,13.80
2022-12-25T14:11:33.510Z,13.50
2022-12-25T14:14:08.540Z,13.20
2022-12-25T14:16:37.361Z,13.10
2022-12-25T14:19:24.899Z,12.80
2022-12-25T14:21:57.262Z,12.60
2022-12-25T14:24:28.171Z,12.40
2022-12-25T14:27:01.759Z,12.30
2022-12-25T14:29:38.718Z,12.20
2022-12-25T14:32:09.723Z,12.10
2022-12-25T14:34:38.687Z,12.10
2022-12-25T14:37:08.445Z,11.90
2022-12-25T14:39:38.966Z,11.70
2022-12-25T14:42:15.477Z,11.60
2022-12-25T14:44:45.522Z,11.50
2022-12-25T14:47:18.243Z,11.30
2022-12-25T14:49:47.802Z,11.40
2022-12-25T14:52:20.891Z,11.60
2022-12-25T14:54:53.863Z,11.50
2022-12-25T14:57:28.354Z,11.40
2022-12-25T15:00:03.825Z,11.30
2022-12-25T15:02:45.781Z,11.30
2022-12-25T15:05:33.034Z,11.20
2022-12-25T15:08:25.399Z,11.00
2022-12-25T15:11:03.744Z,10.90
2022-12-25T15:13:33.096Z,10.80
2022-12-25T15:16:07.416Z,10.70
2022-12-25T15:18:39.462Z,10.50
2022-12-25T15:21:08.514Z,10.40
2022-12-25T15:23:37.064Z,10.30
2022-12-25T15:26:05.710Z,10.40
2022-12-25T15:28:34.361Z,10.50
2022-12-25T15:31:04.639Z,10.60
2022-12-25T15:33:33.545Z,10.40
2022-12-25T15:36:02.279Z,10.30
2022-12-25T15:38:36.541Z,10.30
2022-12-25T15:41:05.128Z,10.30
2022-12-25T15:43:41.619Z,10.20
2022-12-25T15:46:12.389Z,10.10
2022-12-25T15:48:40.989Z,10.00
2022-12-25T15:51:09.563Z,10.00
2022-12-25T15:53:38.423Z,9.90
